createdAt,value
2023-04-21T00:00:40.777Z,26.15
2023-04-21T00:05:43.512Z,21.73
2023-04-21T00:10:47.094Z,30.92
2023-04-21T00:15:49.927Z,21.00
2023-04-21T00:20:52.721Z,22.57
2023-04-21T00:25:55.304Z,27.27
2023-04-21T00:30:58.397Z,24.88
2023-04-21T00:36:01.587Z,22.00
2023-04-21T00:41:04.355Z,19.10
2023-04-21T00:46:06.979Z,24.40
2023-04-21T00:51:09.614Z,25.88
2023-04-21T00:56:12.561Z,26.17
2023-04-21T01:01:15.262Z,22.38
2023-04-21T01:06:20.771Z,19.02
2023-04-21T01:11:23.406Z,25.30
2023-04-21T01:16:27.058Z,25.10
2023-04-21T01:21:32.273Z,20.08
2023-04-21T01:26:37.036Z,19.17
2023-04-21T01:31:39.664Z,20.98
2023-04-21T01:36:43.823Z,23.43
2023-04-21T01:41:46.445Z,22.15
2023-04-21T01:46:50.154Z,21.75
2023-04-21T01:51:53.818Z,21.70
2023-04-21T01:56:56.635Z,26.08
2023-04-21T02:01:59.360Z,29.53
2023-04-21T02:07:02.446Z,27.77
2023-04-21T02:12:05.342Z,22.55
2023-04-21T02:17:07.937Z,22.10
2023-04-21T02:22:13.036Z,24.60
2023-04-21T02:27:15.825Z,24.50
2023-04-21T02:32:25.440Z,21.33
2023-04-21T02:37:28.396Z,22.00
2023-04-21T02:42:32.650Z,22.20
2023-04-21T02:47:35.519Z,22.73
2023-04-21T02:52:39.260Z,18.17
2023-04-21T02:57:41.995Z,17.48
2023-04-21T03:02:45.564Z,20.00
2023-04-21T03:07:48.307Z,16.90
2023-04-21T03:12:50.888Z,18.20
2023-04-21T03:17:53.670Z,20.93
2023-04-21T03:22:59.511Z,17.70
2023-04-21T03:28:02.306Z,26.20
2023-04-21T03:33:05.240Z,19.80
2023-04-21T03:38:08.948Z,22.85
2023-04-21T03:43:11.724Z,15.73
2023-04-21T03:48:14.825Z,20.73
2023-04-21T03:53:17.508Z,22.33
2023-04-21T03:58:20.189Z,19.95
2023-04-21T04:03:23.601Z,19.00
2023-04-21T04:08:26.541Z,19.83
2023-04-21T04:13:29.711Z,22.05
2023-04-21T04:18:32.439Z,20.27
2023-04-21T04:23:35.556Z,17.23
2023-04-21T04:28:38.601Z,21.60
2023-04-21T04:33:44.717Z,24.17
2023-04-21T04:38:47.486Z,18.95
2023-04-21T04:43:50.206Z,21.20
2023-04-21T04:48:52.911Z,17.58
2023-04-21T04:53:55.823Z,19.63
2023-04-21T04:58:58.500Z,18.93
2023-04-21T05:04:01.650Z,20.35
2023-04-21T05:09:05.209Z,21.95
2023-04-21T05:14:07.956Z,27.35
2023-04-21T05:19:11.136Z,19.17
2023-04-21T05:24:14.197Z,24.53
2023-04-21T05:29:17.124Z,30.00
2023-04-21T05:34:20.248Z,26.45
2023-04-21T05:39:23.045Z,23.00
2023-04-21T05:44:27.081Z,20.17
2023-04-21T05:49:30.221Z,17.23
2023-04-21T05:54:34.025Z,18.50
2023-04-21T05:59:36.965Z,18.35
2023-04-21T06:04:39.929Z,22.63
2023-04-21T06:09:43.145Z,22.30
2023-04-21T06:14:46.030Z,21.43
2023-04-21T06:19:53.287Z,17.75
2023-04-21T06:24:56.132Z,18.33
2023-04-21T06:29:58.976Z,26.50
2023-04-21T06:35:01.807Z,18.33
2023-04-21T06:40:05.211Z,22.73
2023-04-21T06:45:08.625Z,19.90
2023-04-21T06:50:11.337Z,20.25
2023-04-21T06:55:14.134Z,19.88
2023-04-21T07:00:17.520Z,18.60
2023-04-21T07:05:20.293Z,23.07
2023-04-21T07:10:23.335Z,17.85
2023-04-21T07:15:26.125Z,18.38
2023-04-21T07:20:28.866Z,16.83
2023-04-21T07:25:31.501Z,21.40
2023-04-21T07:30:34.299Z,18.73
2023-04-21T07:35:37.205Z,17.52
2023-04-21T07:40:40.035Z,17.10
2023-04-21T07:45:43.078Z,17.42
2023-04-21T07:50:45.873Z,19.13
2023-04-21T07:55:48.680Z,15.80
2023-04-21T08:00:51.518Z,15.68
2023-04-21T08:05:54.460Z,15.02
2023-04-21T08:10:57.365Z,18.27
2023-04-21T08:16:00.114Z,18.30
2023-04-21T08:21:02.938Z,15.40
2023-04-21T08:26:05.837Z,18.70
2023-04-21T08:31:09.199Z,22.20
2023-04-21T08:36:21.973Z,19.75
2023-04-21T08:41:31.431Z,14.10
2023-04-21T08:46:35.541Z,11.97
2023-04-21T08:51:38.439Z,17.88
2023-04-21T08:56:41.385Z,17.63
2023-04-21T09:02:08.918Z,13.27
2023-04-21T09:07:30.417Z,14.23
2023-04-21T09:12:33.605Z,13.93
2023-04-21T09:17:37.293Z,14.95
2023-04-21T09:22:40.230Z,15.23
2023-04-21T09:27:43.498Z,10.38
2023-04-21T09:32:46.446Z,13.27
2023-04-21T09:37:49.362Z,15.20
2023-04-21T09:42:52.148Z,11.15
2023-04-21T09:48:01.995Z,16.20
2023-04-21T09:53:08.206Z,13.30
2023-04-21T09:58:16.464Z,15.98
2023-04-21T10:03:23.409Z,12.50
2023-04-21T10:08:26.971Z,13.73
2023-04-21T10:13:30.692Z,11.73
2023-04-21T10:18:37.632Z,9.32
2023-04-21T10:23:43.983Z,12.98
2023-04-21T10:28:48.218Z,11.23
2023-04-21T10:34:09.051Z,9.40
2023-04-21T10:39:16.696Z,12.35
2023-04-21T10:44:19.619Z,8.30
2023-04-21T10:49:30.857Z,10.27
2023-04-21T10:54:50.348Z,9.30
2023-04-21T10:59:53.512Z,8.38
2023-04-21T11:04:56.768Z,8.10
2023-04-21T11:10:06.253Z,7.88
2023-04-21T11:15:11.941Z,9.20
2023-04-21T11:20:14.992Z,9.03
2023-04-21T11:25:18.883Z,9.95
2023-04-21T11:30:22.783Z,7.53
2023-04-21T11:35:25.574Z,8.38
2023-04-21T11:40:28.727Z,9.25
2023-04-21T11:45:31.971Z,7.37
2023-04-21T11:50:35.075Z,7.90
2023-04-21T11:55:37.696Z,7.55
2023-04-21T12:00:40.995Z,8.65
2023-04-21T12:05:43.856Z,8.68
2023-04-21T12:10:47.414Z,9.17
2023-04-21T12:15:50.413Z,7.90
2023-04-21T12:20:53.887Z,10.55
2023-04-21T12:25:56.860Z,7.97
2023-04-21T12:30:59.751Z,9.02
2023-04-21T12:36:02.683Z,8.83
2023-04-21T12:41:06.204Z,8.98
2023-04-21T12:46:09.160Z,8.45
2023-04-21T12:51:11.918Z,5.72
2023-04-21T12:56:14.925Z,6.22
2023-04-21T13:01:18.124Z,5.93
2023-04-21T13:06:21.041Z,5.85
2023-04-21T13:11:23.801Z,5.85
2023-04-21T13:16:29.391Z,6.40
2023-04-21T13:21:33.336Z,6.10
2023-04-21T13:26:36.170Z,7.37
2023-04-21T13:31:39.165Z,7.60
2023-04-21T13:36:42.188Z,6.22
2023-04-21T13:41:44.938Z,6.05
2023-04-21T13:46:47.960Z,8.95
2023-04-21T13:51:50.760Z,6.00
2023-04-21T13:56:53.541Z,6.07
2023-04-21T14:01:56.502Z,6.00
2023-04-21T14:06:59.323Z,6.70
2023-04-21T14:12:02.260Z,7.95
2023-04-21T14:17:05.147Z,6.67
2023-04-21T14:22:07.831Z,5.57
2023-04-21T14:27:11.034Z,5.90
2023-04-21T14:32:13.789Z,6.10
2023-04-21T14:37:16.503Z,7.47
2023-04-21T14:42:19.190Z,6.30
2023-04-21T14:47:22.748Z,6.15
2023-04-21T14:52:27.139Z,6.47
2023-04-21T14:57:29.912Z,5.72
2023-04-21T15:02:33.015Z,6.15
2023-04-21T15:07:36.413Z,5.60
2023-04-21T15:12:39.850Z,8.05
2023-04-21T15:17:42.721Z,6.72
2023-04-21T15:22:45.672Z,7.10
2023-04-21T15:27:48.447Z,6.75
2023-04-21T15:32:51.180Z,6.77
2023-04-21T15:37:53.969Z,9.43
2023-04-21T15:42:56.872Z,5.47
2023-04-21T15:47:59.824Z,6.65
2023-04-21T15:53:09.060Z,6.07
2023-04-21T15:58:13.887Z,6.77
2023-04-21T16:03:16.973Z,9.75
2023-04-21T16:08:19.937Z,5.80
2023-04-21T16:13:22.724Z,5.57
2023-04-21T16:18:25.595Z,8.15
2023-04-21T16:23:28.532Z,7.13
2023-04-21T16:28:31.377Z,7.00
2023-04-21T16:33:34.139Z,7.20
2023-04-21T16:38:36.907Z,6.88
2023-04-21T16:43:39.869Z,5.70
2023-04-21T16:48:43.037Z,6.60
2023-04-21T16:53:45.805Z,4.82
2023-04-21T16:58:48.595Z,9.02
2023-04-21T17:03:51.547Z,7.78
2023-04-21T17:08:59.924Z,7.82
2023-04-21T17:14:02.858Z,9.80
2023-04-21T17:19:05.962Z,8.82
2023-04-21T17:24:08.723Z,7.55
2023-04-21T17:29:11.726Z,9.40
2023-04-21T17:34:14.580Z,9.82
2023-04-21T17:39:17.283Z,10.47
2023-04-21T17:44:20.144Z,10.52
2023-04-21T17:49:25.065Z,10.10
2023-04-21T17:54:28.013Z,8.23
2023-04-21T17:59:31.382Z,10.43
2023-04-21T18:04:34.873Z,13.17
2023-04-21T18:09:38.026Z,8.27
2023-04-21T18:14:40.987Z,11.88
2023-04-21T18:19:43.954Z,11.77
2023-04-21T18:24:46.910Z,10.63
2023-04-21T18:29:50.598Z,16.20
2023-04-21T18:34:53.988Z,22.60
2023-04-21T18:39:56.924Z,29.85
2023-04-21T18:45:02.180Z,28.77
2023-04-21T18:50:11.000Z,30.95
2023-04-21T18:55:15.614Z,31.03
2023-04-21T19:00:18.742Z,29.23
2023-04-21T19:05:21.428Z,27.50
2023-04-21T19:10:24.057Z,23.15
2023-04-21T19:15:26.966Z,20.98
2023-04-21T19:20:30.745Z,19.07
2023-04-21T19:25:34.197Z,18.20
2023-04-21T19:30:37.009Z,19.55
2023-04-21T19:35:39.850Z,15.05
2023-04-21T19:40:45.188Z,14.77
2023-04-21T19:45:48.555Z,18.47
2023-04-21T19:50:51.715Z,13.88
2023-04-21T19:55:54.887Z,19.65
2023-04-21T20:00:57.699Z,19.40
2023-04-21T20:06:01.918Z,19.42
2023-04-21T20:11:04.700Z,22.93
2023-04-21T20:16:07.533Z,23.65
2023-04-21T20:21:10.888Z,23.55
2023-04-21T20:26:13.784Z,23.42
2023-04-21T20:31:19.256Z,22.10
2023-04-21T20:36:22.367Z,23.00
2023-04-21T20:41:24.999Z,22.98
2023-04-21T20:46:29.313Z,20.05
2023-04-21T20:51:33.328Z,26.63
2023-04-21T20:56:35.946Z,26.15
2023-04-21T21:01:41.602Z,24.67
2023-04-21T21:06:44.457Z,28.50
2023-04-21T21:11:47.190Z,28.13
2023-04-21T21:16:50.067Z,31.52
2023-04-21T21:21:52.877Z,28.40
2023-04-21T21:26:55.565Z,25.87
2023-04-21T21:31:58.207Z,26.70
2023-04-21T21:37:01.118Z,29.10
2023-04-21T21:42:03.979Z,33.55
2023-04-21T21:47:06.917Z,31.75
2023-04-21T21:52:09.607Z,29.80
2023-04-21T21:57:12.436Z,24.70
2023-04-21T22:02:15.854Z,30.40
2023-04-21T22:07:19.607Z,33.95
2023-04-21T22:12:22.282Z,29.40
2023-04-21T22:17:25.309Z,33.33
2023-04-21T22:22:27.998Z,29.88
2023-04-21T22:27:33.475Z,30.15
2023-04-21T22:32:36.481Z,32.40
2023-04-21T22:37:39.445Z,30.08
2023-04-21T22:42:42.461Z,33.17
2023-04-21T22:47:45.281Z,38.83
2023-04-21T22:52:48.221Z,32.10
2023-04-21T22:57:51.286Z,32.70
2023-04-21T23:02:54.013Z,30.95
2023-04-21T23:07:56.802Z,36.87
2023-04-21T23:13:01.437Z,38.00
2023-04-21T23:18:05.876Z,36.70
2023-04-21T23:23:08.618Z,34.15
2023-04-21T23:28:11.390Z,32.38
2023-04-21T23:33:14.077Z,31.97
2023-04-21T23:38:16.985Z,28.73
2023-04-21T23:43:19.605Z,33.35
2023-04-21T23:48:22.332Z,25.38
2023-04-21T23:53:25.030Z,31.40
2023-04-21T23:58:28.363Z,27.77
